Time;durP1;ratioP1;P1;durP2;ratioP2;P2;SDS_P1;SDS_P2;PMS_P1;PMS_P2;Temp;Humidity;BMP_temperature;BMP_pressure;BME280_temperature;BME280_humidity;BME280_pressure;Samples;Min_cycle;Max_cycle;Signal;HPM_P1;HPM_P2
2023/02/23 00:00:31;;;;;;;8.18;2.22;;;;;;;1.02;100.00;101997.59;5057690;28;20061;-89
2023/02/23 00:02:59;;;;;;;;;;;;;;;1.01;100.00;102005.66;5025073;28;20025;-86
2023/02/23 00:05:34;;;;;;;7.43;1.95;;;;;;;1.10;100.00;102005.13;5044493;28;19909;-85
2023/02/23 00:08:00;;;;;;;10.32;3.03;;;;;;;1.03;100.00;102007.28;5008217;28;20093;-85
2023/02/23 00:10:30;;;;;;;17.60;2.95;;;;;;;0.79;100.00;101990.03;5043604;28;20026;-88
2023/02/23 00:12:59;;;;;;;6.65;2.42;;;;;;;0.63;100.00;101992.66;5026120;28;20055;-84
2023/02/23 00:15:28;;;;;;;6.60;1.73;;;;;;;0.59;100.00;102009.66;5041591;28;20048;-88
2023/02/23 00:17:57;;;;;;;11.02;2.30;;;;;;;0.39;100.00;102010.69;5041732;28;20037;-84
2023/02/23 00:20:27;;;;;;;55.80;12.93;;;;;;;0.13;100.00;102017.28;5022588;28;20037;-84
2023/02/23 00:22:56;;;;;;;65.63;15.48;;;;;;;-0.08;100.00;102025.38;5006924;28;20042;-89
2023/02/23 00:25:24;;;;;;;41.80;13.50;;;;;;;-0.23;100.00;102019.06;5039655;28;20060;-88
2023/02/23 00:27:51;;;;;;;12.10;4.28;;;;;;;-0.19;100.00;102018.91;5038579;28;20041;-86
2023/02/23 00:30:23;;;;;;;;;;;;;;;-0.19;100.00;102025.03;5040167;28;20036;-85
2023/02/23 00:32:49;;;;;;;11.82;4.03;;;;;;;-0.29;100.00;102026.41;5037566;28;20295;-85
2023/02/23 00:35:17;;;;;;;13.68;3.95;;;;;;;-0.36;100.00;102025.03;5036409;28;20025;-87
2023/02/23 00:37:47;;;;;;;1.27;1.17;;;;;;;-0.42;100.00;102018.25;5037017;28;20021;-86
2023/02/23 00:40:15;;;;;;;5.22;2.72;;;;;;;-0.35;100.00;102026.72;5035661;28;20088;-87
2023/02/23 00:42:43;;;;;;;11.13;3.38;;;;;;;-0.36;100.00;102025.88;5035474;28;20030;-88
2023/02/23 00:45:12;;;;;;;13.07;2.97;;;;;;;-0.44;100.00;102030.69;5034409;28;20122;-86
2023/02/23 00:47:42;;;;;;;7.68;2.60;;;;;;;-0.49;100.00;102037.97;5018914;28;20033;-89
2023/02/23 00:50:19;;;;;;;11.82;2.67;;;;;;;-0.54;100.00;102030.25;5017676;28;20128;-86
2023/02/23 00:52:45;;;;;;;7.10;2.20;;;;;;;-0.51;100.00;102026.59;5035028;28;20052;-87
2023/02/23 00:55:12;;;;;;;7.40;2.63;;;;;;;-0.48;100.00;102042.31;5034439;28;20429;-86
2023/02/23 00:57:38;;;;;;;6.57;2.78;;;;;;;-0.69;100.00;102029.22;5017904;28;20036;-86
2023/02/23 01:00:19;;;;;;;7.75;2.42;;;;;;;-0.84;100.00;102036.97;5019102;28;20384;-89
2023/02/23 01:02:46;;;;;;;8.52;2.35;;;;;;;-0.93;100.00;102030.31;5019583;28;20540;-88
2023/02/23 01:05:12;;;;;;;5.63;1.98;;;;;;;-0.86;100.00;102039.69;5002618;28;20025;-88
2023/02/23 01:07:39;;;;;;;11.45;2.67;;;;;;;-0.79;100.00;102033.19;5001649;28;20067;-86
2023/02/23 01:10:18;;;;;;;5.15;2.70;;;;;;;-0.76;100.00;102030.41;5035713;28;20099;-86
2023/02/23 01:12:47;;;;;;;5.50;2.13;;;;;;;-0.85;100.00;102022.06;5033850;28;20029;-90
2023/02/23 01:15:12;;;;;;;4.35;1.83;;;;;;;-0.88;100.00;102025.69;5002293;28;20037;-92
2023/02/23 01:17:38;;;;;;;4.55;2.10;;;;;;;-0.87;100.00;102027.41;5018057;28;20026;-89
2023/02/23 01:20:23;;;;;;;10.13;2.30;;;;;;;-1.01;100.00;102021.91;5017503;28;20468;-90
2023/02/23 01:22:50;;;;;;;5.97;2.75;;;;;;;-0.98;100.00;102029.66;5034199;28;20053;-86
2023/02/23 01:25:17;;;;;;;10.25;2.63;;;;;;;-1.06;100.00;102024.75;5017684;28;20056;-86
2023/02/23 01:27:43;;;;;;;12.40;2.95;;;;;;;-1.08;100.00;102037.19;5016520;28;20053;-91
2023/02/23 01:30:13;;;;;;;5.95;2.20;;;;;;;-1.11;100.00;102027.63;5001325;28;20045;-86
2023/02/23 01:32:59;;;;;;;4.63;2.47;;;;;;;-0.95;100.00;102038.34;5034234;28;20059;-87
2023/02/23 01:35:25;;;;;;;5.38;2.28;;;;;;;-0.85;100.00;102040.53;5034229;28;20029;-90
2023/02/23 01:37:51;;;;;;;10.50;2.55;;;;;;;-0.85;100.00;102043.19;5033490;28;20368;-88
2023/02/23 01:40:30;;;;;;;5.18;1.45;;;;;;;-0.90;100.00;102032.81;5034884;28;20037;-86
2023/02/23 01:42:58;;;;;;;11.30;2.40;;;;;;;-0.76;100.00;102032.19;5033357;28;20055;-89
2023/02/23 01:45:33;;;;;;;9.43;2.50;;;;;;;-0.59;100.00;102036.69;5017650;28;20043;-86
2023/02/23 01:48:16;;;;;;;9.20;2.78;;;;;;;-0.56;100.00;102024.16;5034412;28;20049;-87
2023/02/23 01:51:06;;;;;;;2.72;1.17;;;;;;;-0.45;100.00;102034.22;4986006;28;20045;-89
2023/02/23 01:53:34;;;;;;;7.05;2.53;;;;;;;-0.63;100.00;101996.34;5034714;28;20055;-87
2023/02/23 01:56:05;;;;;;;6.55;2.10;;;;;;;-0.23;100.00;102036.72;5000294;28;20372;-87
2023/02/23 01:58:31;;;;;;;12.45;4.10;;;;;;;0.03;100.00;102042.47;5017633;28;20041;-87
2023/02/23 02:01:01;;;;;;;12.93;3.10;;;;;;;0.29;100.00;102043.81;5034586;28;20065;-88
2023/02/23 02:03:27;;;;;;;8.60;2.35;;;;;;;0.44;100.00;102043.06;5033228;28;20107;-88
2023/02/23 02:05:53;;;;;;;9.82;3.15;;;;;;;0.50;100.00;102045.38;5034608;28;20463;-88
2023/02/23 02:08:22;;;;;;;3.72;1.75;;;;;;;0.58;100.00;102050.28;5033890;28;20052;-87
2023/02/23 02:10:54;;;;;;;6.40;1.70;;;;;;;0.42;100.00;102031.69;5032447;28;20056;-89
2023/02/23 02:13:24;;;;;;;18.40;3.95;;;;;;;0.55;100.00;102045.13;5018038;28;20033;-88
2023/02/23 02:16:19;;;;;;;7.53;2.28;;;;;;;0.65;100.00;102060.47;5000412;28;20038;-87
2023/02/23 02:19:05;;;;;;;10.30;2.22;;;;;;;0.51;100.00;102047.09;5045951;28;20107;-87
2023/02/23 02:21:59;;;;;;;8.10;2.15;;;;;;;0.42;100.00;102066.09;5000840;28;20061;-88
2023/02/23 02:24:56;;;;;;;7.40;1.95;;;;;;;0.30;100.00;102070.22;5034182;28;20029;-88
2023/02/23 02:27:25;;;;;;;3.35;1.52;;;;;;;0.26;100.00;102075.72;5034337;28;20099;-88
2023/02/23 02:30:33;;;;;;;8.63;2.55;;;;;;;0.32;100.00;102070.13;5031849;28;20102;-88
2023/02/23 02:33:52;;;;;;;4.90;1.73;;;;;;;0.64;100.00;102068.50;5060685;28;20045;-87
2023/02/23 02:36:37;;;;;;;4.55;1.55;;;;;;;0.67;100.00;102067.50;5011280;28;20467;-87
2023/02/23 02:39:09;;;;;;;2.85;2.08;;;;;;;0.61;100.00;102064.22;5033663;28;20029;-90
2023/02/23 02:41:50;;;;;;;8.38;2.70;;;;;;;0.56;100.00;102052.16;5016238;28;20033;-86
2023/02/23 02:44:30;;;;;;;7.40;2.08;;;;;;;0.53;100.00;102049.66;5000521;28;20056;-88
2023/02/23 02:47:06;;;;;;;5.03;1.50;;;;;;;0.56;100.00;102052.16;5000417;28;20125;-89
2023/02/23 02:50:03;;;;;;;4.07;1.30;;;;;;;0.56;100.00;102054.81;5032300;28;20050;-88
2023/02/23 02:52:39;;;;;;;3.78;1.05;;;;;;;0.57;100.00;102060.00;5032578;28;20080;-90
2023/02/23 02:55:36;;;;;;;11.75;2.53;;;;;;;0.52;100.00;102058.53;4999493;28;20044;-89
2023/02/23 02:58:06;;;;;;;8.23;2.80;;;;;;;0.55;100.00;102058.38;5041090;28;20175;-89
2023/02/23 04:17:51;;;;;;;4.85;1.38;;;;;;;1.85;100.00;102079.59;5035490;28;20400;-86
2023/02/23 04:20:17;;;;;;;6.05;2.05;;;;;;;1.86;100.00;102073.38;5035347;28;20104;-88
2023/02/23 04:22:43;;;;;;;9.10;1.85;;;;;;;1.92;100.00;102068.56;5036570;28;20487;-89
2023/02/23 04:25:09;;;;;;;10.45;2.40;;;;;;;1.95;100.00;102068.38;5034269;28;20388;-87
2023/02/23 04:27:35;;;;;;;7.25;1.85;;;;;;;2.04;100.00;102074.09;5035614;28;20060;-87
2023/02/23 04:30:02;;;;;;;3.00;1.60;;;;;;;2.15;100.00;102064.59;5004852;28;20037;-86
2023/02/23 04:32:28;;;;;;;10.27;1.77;;;;;;;2.30;100.00;102068.16;5038782;28;20034;-87
2023/02/23 04:34:54;;;;;;;7.40;2.75;;;;;;;2.36;100.00;102062.47;5040145;28;20026;-86
2023/02/23 04:37:20;;;;;;;12.45;2.80;;;;;;;2.44;100.00;102067.34;5039223;28;20518;-88
2023/02/23 04:39:48;;;;;;;8.48;2.47;;;;;;;2.47;100.00;102063.66;5037140;28;20550;-86
2023/02/23 04:42:16;;;;;;;7.25;1.73;;;;;;;2.51;100.00;102070.47;5037108;28;20072;-89
2023/02/23 04:44:48;;;;;;;3.97;1.60;;;;;;;2.54;100.00;102071.16;5004804;28;20053;-86
2023/02/23 04:47:15;;;;;;;12.32;2.42;;;;;;;2.66;100.00;102074.88;5019006;28;20075;-88
2023/02/23 04:49:48;;;;;;;17.65;3.65;;;;;;;2.71;100.00;102075.44;5035397;28;20037;-90
2023/02/23 04:52:15;;;;;;;1.40;1.27;;;;;;;2.71;100.00;102072.78;5036178;28;20026;-89
2023/02/23 04:54:41;;;;;;;7.55;2.42;;;;;;;2.67;100.00;102065.94;5035820;28;20141;-85
2023/02/23 04:57:08;;;;;;;12.40;2.20;;;;;;;2.61;100.00;102067.16;5036315;28;20520;-88
2023/02/23 04:59:34;;;;;;;20.20;2.47;;;;;;;2.51;100.00;102057.19;5017965;28;20037;-86
2023/02/23 05:02:00;;;;;;;9.18;1.75;;;;;;;2.51;100.00;102054.53;5019026;28;20091;-87
2023/02/23 05:04:26;;;;;;;5.47;2.03;;;;;;;2.41;100.00;102059.56;5035823;28;20168;-86
2023/02/23 05:06:52;;;;;;;2.47;1.38;;;;;;;2.23;100.00;102068.63;5033712;28;20565;-89
2023/02/23 05:09:17;;;;;;;5.13;1.77;;;;;;;1.86;100.00;102037.09;5034697;28;20475;-88
2023/02/23 05:11:43;;;;;;;13.02;2.10;;;;;;;1.88;100.00;102061.75;5034894;28;20490;-86
2023/02/23 05:14:11;;;;;;;13.57;1.77;;;;;;;1.77;100.00;102069.44;5033727;28;20471;-88
2023/02/23 05:16:37;;;;;;;17.15;2.65;;;;;;;1.61;100.00;102073.88;5034126;28;20098;-86
2023/02/23 05:19:03;;;;;;;13.95;2.13;;;;;;;1.51;100.00;102081.50;5033452;28;20401;-88
2023/02/23 05:21:29;;;;;;;8.70;1.85;;;;;;;1.40;100.00;102084.72;5035315;28;20525;-86
2023/02/23 05:23:56;;;;;;;7.65;1.92;;;;;;;1.27;100.00;102079.28;5033385;28;20148;-87
2023/02/23 05:26:22;;;;;;;9.27;2.17;;;;;;;1.12;100.00;102077.44;5034918;28;20069;-89
2023/02/23 05:28:47;;;;;;;6.63;2.22;;;;;;;1.04;100.00;102080.50;5017880;28;20049;-88
2023/02/23 05:31:14;;;;;;;11.93;2.50;;;;;;;0.90;100.00;102087.44;5035011;28;20387;-88
2023/02/23 05:33:44;;;;;;;5.38;1.48;;;;;;;0.80;100.00;102089.75;5035101;28;20044;-87
2023/02/23 05:36:15;;;;;;;11.00;1.92;;;;;;;0.69;100.00;102061.19;5017827;28;20112;-89
2023/02/23 05:38:41;;;;;;;9.68;1.73;;;;;;;0.95;100.00;102078.31;5017705;28;20064;-86
2023/02/23 05:41:08;;;;;;;9.05;1.90;;;;;;;1.06;100.00;102062.72;5016672;28;20052;-91
2023/02/23 05:43:34;;;;;;;12.23;2.47;;;;;;;1.02;100.00;102066.47;5067073;28;20057;-87
2023/02/23 05:46:00;;;;;;;6.90;1.90;;;;;;;0.93;100.00;102077.56;5034948;28;20561;-87
2023/02/23 05:48:27;;;;;;;10.63;2.40;;;;;;;0.65;100.00;102067.56;5016953;28;20064;-88
2023/02/23 05:50:53;;;;;;;11.07;2.03;;;;;;;0.56;100.00;102075.97;5033283;28;20080;-86
2023/02/23 05:53:19;;;;;;;15.18;2.20;;;;;;;0.49;100.00;102082.50;5033096;28;20479;-88
2023/02/23 05:55:46;;;;;;;4.97;1.67;;;;;;;0.45;100.00;102071.25;5034493;28;20368;-87
2023/02/23 05:58:11;;;;;;;12.05;1.98;;;;;;;0.53;100.00;102087.59;5016099;28;20478;-87
2023/02/23 06:00:37;;;;;;;8.45;1.98;;;;;;;0.52;100.00;102082.34;5033686;28;20498;-86
2023/02/23 06:03:03;;;;;;;16.45;2.15;;;;;;;0.59;100.00;102083.75;5035068;28;20526;-87
2023/02/23 06:05:29;;;;;;;6.60;1.63;;;;;;;0.56;100.00;102073.34;5033249;28;20502;-86
2023/02/23 06:07:55;;;;;;;8.40;2.25;;;;;;;0.70;100.00;102086.72;5034653;28;20475;-87
2023/02/23 06:10:21;;;;;;;7.05;1.60;;;;;;;0.78;100.00;102094.25;5034678;28;20031;-89
2023/02/23 06:12:47;;;;;;;13.75;1.90;;;;;;;0.94;100.00;102099.59;5035805;28;20479;-88
2023/02/23 06:15:13;;;;;;;2.47;1.75;;;;;;;1.01;100.00;102095.69;5036161;28;20522;-87
2023/02/23 06:17:39;;;;;;;9.85;2.25;;;;;;;1.15;100.00;102093.16;5036434;28;20471;-87
2023/02/23 06:20:06;;;;;;;8.95;2.13;;;;;;;1.31;100.00;102098.50;5036174;28;20479;-88
2023/02/23 06:22:32;;;;;;;5.65;1.70;;;;;;;1.46;100.00;102099.47;5034576;28;20140;-86
2023/02/23 06:24:57;;;;;;;2.42;1.40;;;;;;;1.59;100.00;102097.84;5033413;28;20531;-89
2023/02/23 06:27:23;;;;;;;11.68;2.00;;;;;;;1.67;100.00;102098.28;5034052;28;20475;-90
2023/02/23 06:29:49;;;;;;;6.43;2.05;;;;;;;1.72;100.00;102109.50;5033069;28;20488;-86
2023/02/23 06:32:15;;;;;;;1.20;1.05;;;;;;;1.67;100.00;102089.47;5032924;28;20472;-87
2023/02/23 06:34:40;;;;;;;6.57;2.08;;;;;;;1.80;100.00;102105.53;5034075;28;20467;-87
2023/02/23 06:37:06;;;;;;;9.32;2.33;;;;;;;1.82;100.00;102107.16;5033232;28;20538;-89
2023/02/23 06:39:32;;;;;;;18.48;3.10;;;;;;;1.79;100.00;102109.13;5034008;28;20534;-89
2023/02/23 06:41:58;;;;;;;7.28;1.83;;;;;;;1.71;100.00;102101.59;5033912;28;20490;-89
2023/02/23 06:44:24;;;;;;;10.25;1.85;;;;;;;1.74;100.00;102112.88;5034761;28;20048;-89
2023/02/23 06:46:49;;;;;;;5.05;1.90;;;;;;;1.58;100.00;102112.03;5033123;28;20032;-90
2023/02/23 06:49:15;;;;;;;6.57;1.50;;;;;;;1.31;100.00;102088.75;5016183;28;20474;-88
2023/02/23 06:51:41;;;;;;;12.93;2.00;;;;;;;1.29;100.00;102105.66;5034207;28;20130;-90
2023/02/23 06:54:07;;;;;;;2.50;2.00;;;;;;;1.24;100.00;102105.91;5032939;28;20530;-89
2023/02/23 06:56:33;;;;;;;7.80;1.95;;;;;;;1.08;100.00;102110.31;5033319;28;20099;-87
2023/02/23 06:58:58;;;;;;;8.10;2.22;;;;;;;1.03;100.00;102121.19;5032509;28;20471;-89
2023/02/23 07:01:24;;;;;;;6.07;1.83;;;;;;;0.97;100.00;102115.31;5018003;28;20017;-86
2023/02/23 07:03:50;;;;;;;9.85;2.13;;;;;;;0.71;100.00;102106.09;5034245;28;20033;-87
2023/02/23 07:06:30;;;;;;;6.13;2.45;;;;;;;0.59;100.00;102119.03;5033693;28;20029;-86
2023/02/23 07:08:57;;;;;;;10.38;2.00;;;;;;;0.37;100.00;102119.25;5032768;28;20108;-89
2023/02/23 07:11:22;;;;;;;7.38;2.08;;;;;;;0.13;100.00;102120.44;5000101;28;20479;-86
2023/02/23 07:13:48;;;;;;;7.47;2.00;;;;;;;-0.08;100.00;102119.69;4999781;28;20080;-90
2023/02/23 07:16:15;;;;;;;2.35;1.45;;;;;;;-0.32;100.00;102114.66;5032476;28;20087;-89
2023/02/23 07:18:46;;;;;;;9.27;1.58;;;;;;;-0.38;100.00;102114.94;5034054;28;20034;-86
2023/02/23 07:21:12;;;;;;;6.35;2.00;;;;;;;-0.46;100.00;102099.44;5016129;28;20029;-86
2023/02/23 07:23:38;;;;;;;3.70;1.83;;;;;;;-0.40;100.00;102122.06;5032960;28;20026;-87
2023/02/23 07:26:04;;;;;;;5.32;1.77;;;;;;;-0.60;100.00;102117.72;5032475;28;20033;-85
2023/02/23 07:28:35;;;;;;;7.38;2.03;;;;;;;-0.78;100.00;102113.28;5032350;28;20037;-88
2023/02/23 07:31:17;;;;;;;7.18;2.00;;;;;;;-0.85;100.00;102101.28;5016783;28;20057;-88
2023/02/23 07:33:43;;;;;;;3.95;1.13;;;;;;;-0.86;100.00;102096.94;5001612;28;20046;-88
2023/02/23 07:36:09;;;;;;;3.13;1.35;;;;;;;-0.64;100.00;102113.50;5032452;28;20040;-90
2023/02/23 07:38:35;;;;;;;6.00;1.88;;;;;;;-0.51;100.00;102119.06;5032352;28;20025;-88
2023/02/23 07:41:02;;;;;;;3.33;1.52;;;;;;;-0.65;100.00;102095.94;5033565;28;20038;-90
2023/02/23 07:43:28;;;;;;;1.75;1.13;;;;;;;-0.56;100.00;102118.44;4999658;28;20041;-90
2023/02/23 07:45:58;;;;;;;1.50;1.08;;;;;;;-0.29;100.00;102143.59;5032148;28;20025;-87
2023/02/23 07:48:24;;;;;;;7.43;2.45;;;;;;;-0.39;100.00;102120.31;5032199;28;20034;-88
2023/02/23 07:50:49;;;;;;;8.82;2.20;;;;;;;-0.17;100.00;102138.66;5032275;28;20377;-88
2023/02/23 07:53:15;;;;;;;1.70;1.20;;;;;;;-0.08;100.00;102151.41;5033015;28;20033;-88
2023/02/23 07:55:41;;;;;;;4.75;1.40;;;;;;;0.22;100.00;102144.66;5032881;28;20037;-87
2023/02/23 07:58:06;;;;;;;5.13;1.58;;;;;;;0.54;100.00;102149.31;4999710;28;20059;-89
2023/02/23 08:00:33;;;;;;;9.55;1.88;;;;;;;0.54;100.00;102144.88;5031853;28;20029;-86
2023/02/23 08:03:00;;;;;;;6.53;1.45;;;;;;;0.66;100.00;102148.66;5015657;28;20044;-87
2023/02/23 08:05:27;;;;;;;2.58;1.40;;;;;;;1.00;100.00;102146.94;5031919;28;20033;-85
2023/02/23 08:07:53;;;;;;;7.55;1.55;;;;;;;1.25;100.00;102146.53;5016724;28;20072;-87
2023/02/23 08:10:21;;;;;;;6.15;1.55;;;;;;;1.56;100.00;102161.63;5002407;28;20119;-89
2023/02/23 08:12:47;;;;;;;3.50;1.15;;;;;;;1.78;100.00;102158.66;5034999;28;20040;-89
2023/02/23 08:15:16;;;;;;;2.75;1.13;;;;;;;1.92;100.00;102155.25;5035247;28;20387;-85
2023/02/23 08:17:42;;;;;;;8.27;1.60;;;;;;;2.28;100.00;102154.13;5034293;28;20041;-88
2023/02/23 08:20:09;;;;;;;8.50;2.38;;;;;;;2.54;100.00;102163.22;5034519;28;20098;-85
2023/02/23 08:22:37;;;;;;;6.88;2.30;;;;;;;2.79;100.00;102165.31;5017334;28;20038;-87
2023/02/23 08:25:04;;;;;;;8.32;2.70;;;;;;;3.01;100.00;102157.75;5033844;28;20057;-89
2023/02/23 08:27:44;;;;;;;2.13;1.40;;;;;;;3.36;100.00;102170.72;5034394;28;20033;-88
2023/02/23 08:30:14;;;;;;;9.00;1.65;;;;;;;3.62;100.00;102181.53;5020120;28;20104;-87
2023/02/23 08:32:40;;;;;;;12.00;1.63;;;;;;;3.87;100.00;102180.84;5035403;28;20151;-86
2023/02/23 08:35:06;;;;;;;6.50;1.73;;;;;;;4.06;100.00;102180.53;5034964;28;20032;-87
2023/02/23 08:37:32;;;;;;;10.70;1.55;;;;;;;4.34;100.00;102177.78;5035140;28;20036;-87
2023/02/23 08:39:59;;;;;;;7.30;1.70;;;;;;;4.61;100.00;102179.56;5018626;28;20037;-86
2023/02/23 08:42:26;;;;;;;4.30;2.00;;;;;;;4.77;100.00;102184.72;5018919;28;20047;-89
2023/02/23 08:44:51;;;;;;;7.13;2.00;;;;;;;4.93;100.00;102187.22;5002289;28;20422;-87
2023/02/23 08:47:20;;;;;;;1.63;1.27;;;;;;;5.21;100.00;102187.03;5034699;28;20091;-89
2023/02/23 08:49:46;;;;;;;3.08;1.42;;;;;;;5.33;100.00;102179.16;5018469;28;20550;-88
2023/02/23 08:52:12;;;;;;;13.73;2.58;;;;;;;5.75;100.00;102193.09;5036081;28;20055;-86
2023/02/23 08:54:44;;;;;;;13.50;2.08;;;;;;;6.14;100.00;102189.41;5034554;28;20476;-89
2023/02/23 08:57:09;;;;;;;10.45;3.47;;;;;;;5.88;100.00;102193.94;5035092;28;20179;-86
2023/02/23 08:59:36;;;;;;;16.25;4.60;;;;;;;5.41;100.00;102192.78;5042166;28;20041;-86
2023/02/23 09:02:07;;;;;;;9.20;3.40;;;;;;;5.04;100.00;102201.50;5038927;28;20033;-89
2023/02/23 09:04:36;;;;;;;9.73;3.75;;;;;;;4.63;100.00;102167.88;5050465;28;20485;-88
2023/02/23 09:07:03;;;;;;;12.27;3.35;;;;;;;4.49;100.00;102183.03;5034838;28;20035;-86
2023/02/23 09:09:29;;;;;;;12.60;3.75;;;;;;;4.32;100.00;102182.34;5034473;28;20034;-90
2023/02/23 09:11:55;;;;;;;10.02;3.40;;;;;;;4.16;100.00;102171.84;5017810;28;20048;-85
2023/02/23 09:14:20;;;;;;;19.05;4.97;;;;;;;4.16;100.00;102193.13;5034065;28;20029;-87
2023/02/23 09:16:46;;;;;;;7.18;2.75;;;;;;;4.19;100.00;102186.75;5034011;28;20071;-87
2023/02/23 09:19:12;;;;;;;6.47;2.92;;;;;;;4.04;100.00;102188.59;5033945;28;20033;-88
2023/02/23 09:21:38;;;;;;;13.23;3.45;;;;;;;4.75;100.00;102199.97;5001444;28;20120;-87
2023/02/23 09:24:05;;;;;;;8.75;2.72;;;;;;;6.10;100.00;102198.59;5017536;28;20071;-87
2023/02/23 09:26:38;;;;;;;5.45;2.30;;;;;;;8.25;100.00;102188.22;5000098;28;20034;-82
2023/02/23 09:29:06;;;;;;;6.93;1.75;;;;;;;9.71;97.66;102191.97;5017755;28;20029;-86
2023/02/23 09:31:35;;;;;;;6.88;2.45;;;;;;;10.52;91.87;102186.53;5033698;28;20053;-85
2023/02/23 09:34:01;;;;;;;9.45;2.78;;;;;;;11.15;89.94;102189.63;5000893;28;20049;-79
2023/02/23 09:36:27;;;;;;;20.98;7.45;;;;;;;11.66;86.78;102182.09;5033309;28;20472;-80
2023/02/23 09:38:55;;;;;;;9.23;4.50;;;;;;;12.12;85.36;102193.84;5033369;28;20242;-80
2023/02/23 09:41:33;;;;;;;12.88;4.88;;;;;;;12.45;84.23;102192.31;5033822;28;20396;-79
2023/02/23 09:44:21;;;;;;;4.47;1.80;;;;;;;12.64;83.90;102183.22;5033894;28;20088;-80
2023/02/23 09:46:47;;;;;;;8.02;2.50;;;;;;;13.05;81.85;102201.66;5034030;28;20472;-80
2023/02/23 09:49:21;;;;;;;10.93;3.25;;;;;;;13.22;82.30;102191.81;5033186;28;20051;-79
2023/02/23 09:51:52;;;;;;;10.85;2.50;;;;;;;12.55;83.08;102186.88;5033581;28;20231;-80
2023/02/23 09:54:21;;;;;;;7.18;2.28;;;;;;;12.42;83.85;102179.16;5033515;28;20034;-80
2023/02/23 09:56:47;;;;;;;9.75;3.17;;;;;;;12.95;83.56;102185.53;5017200;28;20036;-80
2023/02/23 09:59:15;;;;;;;6.43;2.10;;;;;;;13.70;81.18;102193.97;5033122;28;20120;-80
2023/02/23 10:01:47;;;;;;;8.63;2.45;;;;;;;14.19;80.73;102191.47;5033282;28;20026;-80
2023/02/23 10:04:42;;;;;;;7.38;2.47;;;;;;;14.76;79.82;102187.19;5035420;28;20120;-80
2023/02/23 10:07:42;;;;;;;12.25;2.47;;;;;;;14.02;80.91;102181.59;5019156;28;20418;-80
2023/02/23 10:10:30;;;;;;;6.90;3.33;;;;;;;14.36;84.53;102200.47;5019337;28;20033;-80
2023/02/23 10:13:19;;;;;;;12.43;3.13;;;;;;;13.84;85.16;102189.84;5034251;28;20029;-80
2023/02/23 10:15:56;;;;;;;9.50;3.05;;;;;;;12.12;92.05;102192.97;5030133;28;20049;-80
2023/02/23 10:18:40;;;;;;;13.95;3.42;;;;;;;11.97;97.42;102190.78;5032972;28;20044;-81
2023/02/23 10:21:10;;;;;;;5.05;2.10;;;;;;;13.39;90.59;102186.38;5032958;28;20041;-80
2023/02/23 10:23:41;;;;;;;11.52;3.22;;;;;;;12.56;93.71;102191.25;5033140;28;20087;-81
2023/02/23 10:26:07;;;;;;;8.32;3.05;;;;;;;12.02;99.09;102185.78;5016641;28;20051;-81
2023/02/23 10:28:35;;;;;;;11.10;3.20;;;;;;;11.43;100.00;102174.41;5032605;28;20053;-81
2023/02/23 10:31:31;;;;;;;7.80;2.75;;;;;;;11.24;100.00;102187.91;5032456;28;20037;-81
2023/02/23 10:33:59;;;;;;;9.50;1.85;;;;;;;11.00;100.00;102181.13;5048046;28;20047;-82
2023/02/23 10:36:37;;;;;;;8.90;1.80;;;;;;;10.81;100.00;102174.94;5000436;28;20487;-80
2023/02/23 10:39:07;;;;;;;6.95;1.70;;;;;;;10.52;100.00;102173.09;5032502;28;20033;-81
2023/02/23 10:41:34;;;;;;;6.00;1.65;;;;;;;10.38;100.00;102173.53;5016067;28;20041;-81
2023/02/23 10:44:00;;;;;;;6.80;2.30;;;;;;;10.34;100.00;102178.31;5032368;28;20033;-80
2023/02/23 10:46:34;;;;;;;4.47;1.42;;;;;;;10.11;100.00;102165.09;5016400;28;20037;-81
2023/02/23 10:48:59;;;;;;;1.98;1.00;;;;;;;9.99;100.00;102166.19;5032352;28;20034;-81
2023/02/23 10:51:33;;;;;;;5.32;1.60;;;;;;;10.48;100.00;102182.44;5032699;28;20041;-81
2023/02/23 10:54:01;;;;;;;6.63;2.30;;;;;;;13.12;90.41;102179.22;5015890;28;20044;-80
2023/02/23 10:56:33;;;;;;;3.92;1.73;;;;;;;15.53;81.11;102164.09;5032067;28;20029;-81
2023/02/23 10:58:58;;;;;;;6.50;1.90;;;;;;;17.26;73.67;102161.97;5017237;28;20038;-88
2023/02/23 11:01:48;;;;;;;4.40;1.73;;;;;;;18.41;64.85;102169.53;5032227;28;20032;-87
2023/02/23 11:04:26;;;;;;;5.18;2.13;;;;;;;17.49;66.66;102164.59;5017859;28;20035;-87
2023/02/23 11:07:28;;;;;;;9.50;1.77;;;;;;;16.19;67.17;102166.50;5016479;28;20067;-88
2023/02/23 11:09:55;;;;;;;;;;;;;;;15.46;67.23;102162.25;5021600;28;20043;-88
2023/02/23 11:12:36;;;;;;;7.45;1.80;;;;;;;15.19;70.79;102164.34;5032828;28;19947;-89
2023/02/23 11:15:26;;;;;;;7.97;1.70;;;;;;;15.98;66.16;102150.84;5016547;28;20036;-88
2023/02/23 11:18:00;;;;;;;5.80;1.55;;;;;;;17.54;63.42;102154.00;5048341;28;20021;-88
2023/02/23 11:20:38;;;;;;;9.18;1.90;;;;;;;18.04;60.03;102156.13;5016119;28;20021;-89
2023/02/23 11:23:28;;;;;;;4.18;1.48;;;;;;;17.56;56.82;102154.63;5032690;28;20030;-88
2023/02/23 11:26:21;;;;;;;4.97;1.00;;;;;;;14.52;64.38;102143.69;5022353;28;20472;-86
2023/02/23 11:28:53;;;;;;;5.85;1.30;;;;;;;12.83;69.67;102163.31;5021143;28;20041;-86
2023/02/23 11:31:22;;;;;;;3.60;1.38;;;;;;;11.92;71.93;102165.28;5033009;28;20057;-87
2023/02/23 11:33:48;;;;;;;4.13;1.00;;;;;;;11.54;75.38;102167.97;5018440;28;20025;-88
2023/02/23 11:36:28;;;;;;;5.28;1.13;;;;;;;10.71;80.94;102173.09;4999579;28;20034;-85
2023/02/23 11:39:22;;;;;;;9.00;1.83;;;;;;;10.06;84.35;102161.97;5031971;28;20045;-88
2023/02/23 11:42:21;;;;;;;5.95;1.65;;;;;;;11.49;73.03;102153.25;5016215;28;20041;-85
2023/02/23 11:45:21;;;;;;;8.40;1.20;;;;;;;12.35;72.40;102155.63;5002669;28;20041;-85
2023/02/23 11:47:50;;;;;;;2.90;1.02;;;;;;;11.59;73.25;102149.53;5036751;28;20483;-88
2023/02/23 11:50:22;;;;;;;2.35;1.08;;;;;;;11.83;69.56;102150.84;5021131;28;20164;-85
2023/02/23 11:53:12;;;;;;;2.88;1.08;;;;;;;11.82;71.90;102149.97;5052560;28;20025;-88
2023/02/23 11:55:46;;;;;;;4.28;1.30;;;;;;;12.10;66.08;102150.84;5034691;28;20136;-86
2023/02/23 11:58:25;;;;;;;4.10;1.38;;;;;;;12.82;65.51;102152.69;5003029;28;20033;-85
2023/02/23 12:01:12;;;;;;;4.18;1.23;;;;;;;13.71;64.29;102116.44;5019211;28;20051;-85
2023/02/23 12:03:50;;;;;;;4.85;2.20;;;;;;;14.22;55.85;102144.31;5035619;28;20045;-85
2023/02/23 12:06:29;;;;;;;3.33;1.20;;;;;;;15.42;54.80;102136.50;5035740;28;20048;-87
2023/02/23 12:09:26;;;;;;;4.30;1.13;;;;;;;14.36;58.32;102145.50;5019545;28;20383;-86
2023/02/23 12:12:02;;;;;;;3.17;0.98;;;;;;;13.25;62.61;102137.47;5035250;28;20038;-85
2023/02/23 12:14:37;;;;;;;3.10;1.40;;;;;;;13.49;64.25;102140.31;5036247;28;20041;-85
2023/02/23 12:17:28;;;;;;;2.45;1.08;;;;;;;14.10;66.04;102135.66;5002599;28;20060;-88
2023/02/23 12:20:31;;;;;;;2.97;1.40;;;;;;;15.11;63.67;102123.69;5035354;28;20039;-89
2023/02/23 12:23:01;;;;;;;5.32;1.90;;;;;;;16.49;54.59;102114.06;5002650;28;20440;-88
2023/02/23 12:25:29;;;;;;;5.20;2.10;;;;;;;16.32;53.25;102117.91;5002632;28;20392;-86
2023/02/23 12:28:35;;;;;;;7.60;1.48;;;;;;;15.06;56.98;102120.69;5035158;28;20031;-86
2023/02/23 12:31:23;;;;;;;3.70;1.25;;;;;;;15.97;55.70;102114.75;5036518;28;20028;-86
2023/02/23 12:34:20;;;;;;;3.50;1.13;;;;;;;16.31;56.10;102109.97;5036167;28;20029;-87
2023/02/23 12:36:54;;;;;;;3.13;0.95;;;;;;;15.33;56.08;102109.41;5038501;28;20044;-85
2023/02/23 12:39:26;;;;;;;7.00;1.48;;;;;;;17.03;50.72;102118.53;5018911;28;20034;-85
2023/02/23 12:42:11;;;;;;;3.72;1.30;;;;;;;17.28;52.86;102110.09;5002413;28;20033;-88
2023/02/23 12:44:45;;;;;;;6.00;1.50;;;;;;;17.72;49.43;102107.34;5018694;28;20029;-85
2023/02/23 12:47:30;;;;;;;6.60;1.25;;;;;;;18.03;50.60;102095.41;5018528;28;20037;-86
2023/02/23 12:50:10;;;;;;;2.97;0.90;;;;;;;18.85;46.23;102094.09;5034588;28;20073;-87
2023/02/23 12:52:52;;;;;;;3.97;1.08;;;;;;;17.91;44.49;102094.22;5034908;28;20056;-87
2023/02/23 12:55:37;;;;;;;2.65;0.90;;;;;;;16.25;49.65;102081.69;5017811;28;20037;-84
2023/02/23 12:58:28;;;;;;;5.28;1.15;;;;;;;17.58;45.15;102083.75;5020356;28;20044;-85
2023/02/23 13:01:01;;;;;;;4.68;1.55;;;;;;;18.71;42.93;102084.09;5034490;28;20027;-87